sensor_id;sensor_type;location;lat;lon;timestamp;P1;durP1;ratioP1;P2;durP2;ratioP2
8086;SDS011;4086;54.412;9.980;2023-08-06T00:00:05;3.60;;;3.23;;
8086;SDS011;4086;54.412;9.980;2023-08-06T00:02:33;3.20;;;3.00;;
8086;SDS011;4086;54.412;9.980;2023-08-06T00:04:59;4.20;;;3.40;;
8086;SDS011;4086;54.412;9.980;2023-08-06T00:07:26;5.77;;;3.17;;
8086;SDS011;4086;54.412;9.980;2023-08-06T00:09:52;5.83;;;3.47;;
8086;SDS011;4086;54.412;9.980;2023-08-06T00:12:19;5.10;;;3.50;;
8086;SDS011;4086;54.412;9.980;2023-08-06T00:14:45;5.90;;;3.20;;
8086;SDS011;4086;54.412;9.980;2023-08-06T00:17:17;4.93;;;3.40;;
8086;SDS011;4086;54.412;9.980;2023-08-06T00:19:43;3.87;;;3.20;;
8086;SDS011;4086;54.412;9.980;2023-08-06T00:22:09;3.53;;;3.23;;
8086;SDS011;4086;54.412;9.980;2023-08-06T00:24:36;3.80;;;3.13;;
8086;SDS011;4086;54.412;9.980;2023-08-06T00:27:03;4.80;;;3.60;;
8086;SDS011;4086;54.412;9.980;2023-08-06T00:29:29;4.10;;;3.40;;
8086;SDS011;4086;54.412;9.980;2023-08-06T00:31:56;3.60;;;3.30;;
8086;SDS011;4086;54.412;9.980;2023-08-06T00:34:24;5.07;;;3.50;;
8086;SDS011;4086;54.412;9.980;2023-08-06T00:36:50;5.37;;;3.67;;
8086;SDS011;4086;54.412;9.980;2023-08-06T00:39:16;3.60;;;3.30;;
8086;SDS011;4086;54.412;9.980;2023-08-06T00:41:43;3.57;;;3.27;;
8086;SDS011;4086;54.412;9.980;2023-08-06T00:44:09;7.27;;;4.10;;
8086;SDS011;4086;54.412;9.980;2023-08-06T00:46:36;4.87;;;3.40;;
8086;SDS011;4086;54.412;9.980;2023-08-06T00:49:02;5.57;;;3.70;;
8086;SDS011;4086;54.412;9.980;2023-08-06T00:51:31;4.80;;;3.63;;
8086;SDS011;4086;54.412;9.980;2023-08-06T00:53:57;3.80;;;3.50;;
8086;SDS011;4086;54.412;9.980;2023-08-06T00:56:24;4.90;;;3.23;;
8086;SDS011;4086;54.412;9.980;2023-08-06T00:58:51;4.63;;;3.33;;
8086;SDS011;4086;54.412;9.980;2023-08-06T01:01:18;3.40;;;3.10;;
8086;SDS011;4086;54.412;9.980;2023-08-06T01:03:44;6.33;;;3.60;;
8086;SDS011;4086;54.412;9.980;2023-08-06T01:06:11;3.30;;;3.00;;
8086;SDS011;4086;54.412;9.980;2023-08-06T01:08:40;5.77;;;3.70;;
8086;SDS011;4086;54.412;9.980;2023-08-06T01:11:14;3.70;;;3.40;;
8086;SDS011;4086;54.412;9.980;2023-08-06T01:13:45;4.27;;;3.40;;
8086;SDS011;4086;54.412;9.980;2023-08-06T01:16:14;3.60;;;3.30;;
8086;SDS011;4086;54.412;9.980;2023-08-06T01:18:42;5.73;;;3.40;;
8086;SDS011;4086;54.412;9.980;2023-08-06T01:21:12;5.50;;;3.80;;
8086;SDS011;4086;54.412;9.980;2023-08-06T01:23:39;4.50;;;3.40;;
8086;SDS011;4086;54.412;9.980;2023-08-06T01:26:08;4.43;;;3.73;;
8086;SDS011;4086;54.412;9.980;2023-08-06T01:28:40;3.93;;;3.30;;
8086;SDS011;4086;54.412;9.980;2023-08-06T01:31:10;5.60;;;3.37;;
8086;SDS011;4086;54.412;9.980;2023-08-06T01:33:43;7.23;;;3.53;;
8086;SDS011;4086;54.412;9.980;2023-08-06T01:36:13;4.30;;;3.43;;
8086;SDS011;4086;54.412;9.980;2023-08-06T01:38:41;5.77;;;3.90;;
8086;SDS011;4086;54.412;9.980;2023-08-06T01:41:08;4.67;;;3.60;;
8086;SDS011;4086;54.412;9.980;2023-08-06T01:43:34;3.50;;;3.20;;
8086;SDS011;4086;54.412;9.980;2023-08-06T01:46:01;5.17;;;3.43;;
8086;SDS011;4086;54.412;9.980;2023-08-06T01:48:27;6.50;;;3.70;;
8086;SDS011;4086;54.412;9.980;2023-08-06T01:50:54;3.93;;;3.63;;
8086;SDS011;4086;54.412;9.980;2023-08-06T01:53:22;4.93;;;3.50;;
8086;SDS011;4086;54.412;9.980;2023-08-06T01:55:48;4.50;;;4.10;;
8086;SDS011;4086;54.412;9.980;2023-08-06T01:58:14;4.57;;;3.80;;
8086;SDS011;4086;54.412;9.980;2023-08-06T02:00:41;6.30;;;4.23;;
8086;SDS011;4086;54.412;9.980;2023-08-06T02:03:07;5.83;;;3.80;;
8086;SDS011;4086;54.412;9.980;2023-08-06T02:05:33;4.63;;;3.70;;
8086;SDS011;4086;54.412;9.980;2023-08-06T02:08:00;4.63;;;3.70;;
8086;SDS011;4086;54.412;9.980;2023-08-06T02:10:28;8.30;;;4.33;;
8086;SDS011;4086;54.412;9.980;2023-08-06T02:12:54;5.73;;;4.10;;
8086;SDS011;4086;54.412;9.980;2023-08-06T02:15:20;4.10;;;3.70;;
8086;SDS011;4086;54.412;9.980;2023-08-06T02:17:47;4.80;;;3.90;;
8086;SDS011;4086;54.412;9.980;2023-08-06T02:20:13;5.30;;;4.00;;
8086;SDS011;4086;54.412;9.980;2023-08-06T02:22:39;4.37;;;3.80;;
8086;SDS011;4086;54.412;9.980;2023-08-06T02:25:06;6.07;;;3.67;;
8086;SDS011;4086;54.412;9.980;2023-08-06T02:27:34;5.77;;;3.87;;
8086;SDS011;4086;54.412;9.980;2023-08-06T02:30:02;5.67;;;4.10;;
8086;SDS011;4086;54.412;9.980;2023-08-06T02:32:30;4.87;;;4.10;;
8086;SDS011;4086;54.412;9.980;2023-08-06T02:34:57;5.10;;;3.77;;
8086;SDS011;4086;54.412;9.980;2023-08-06T02:37:23;4.80;;;3.90;;
8086;SDS011;4086;54.412;9.980;2023-08-06T02:39:50;4.77;;;3.77;;
8086;SDS011;4086;54.412;9.980;2023-08-06T02:42:16;4.67;;;4.20;;
8086;SDS011;4086;54.412;9.980;2023-08-06T02:44:44;4.60;;;4.10;;
8086;SDS011;4086;54.412;9.980;2023-08-06T02:47:10;6.53;;;4.17;;
8086;SDS011;4086;54.412;9.980;2023-08-06T02:49:37;5.43;;;3.80;;
8086;SDS011;4086;54.412;9.980;2023-08-06T02:52:03;5.10;;;4.03;;
8086;SDS011;4086;54.412;9.980;2023-08-06T02:54:30;4.30;;;3.90;;
8086;SDS011;4086;54.412;9.980;2023-08-06T02:56:57;6.13;;;4.27;;
8086;SDS011;4086;54.412;9.980;2023-08-06T02:59:23;5.33;;;4.57;;
8086;SDS011;4086;54.412;9.980;2023-08-06T03:01:51;6.70;;;4.40;;
8086;SDS011;4086;54.412;9.980;2023-08-06T03:04:17;6.37;;;4.27;;
8086;SDS011;4086;54.412;9.980;2023-08-06T03:06:43;7.87;;;4.67;;
8086;SDS011;4086;54.412;9.980;2023-08-06T03:09:10;5.00;;;4.20;;
8086;SDS011;4086;54.412;9.980;2023-08-06T03:11:36;7.07;;;4.57;;
8086;SDS011;4086;54.412;9.980;2023-08-06T03:14:03;7.30;;;4.80;;
8086;SDS011;4086;54.412;9.980;2023-08-06T03:16:29;5.40;;;4.40;;
8086;SDS011;4086;54.412;9.980;2023-08-06T03:18:57;4.67;;;4.27;;
8086;SDS011;4086;54.412;9.980;2023-08-06T03:21:23;4.60;;;4.20;;
8086;SDS011;4086;54.412;9.980;2023-08-06T03:23:49;5.13;;;4.47;;
8086;SDS011;4086;54.412;9.980;2023-08-06T03:26:16;5.43;;;4.77;;
8086;SDS011;4086;54.412;9.980;2023-08-06T03:28:42;5.20;;;4.63;;
8086;SDS011;4086;54.412;9.980;2023-08-06T03:31:09;7.50;;;4.73;;
8086;SDS011;4086;54.412;9.980;2023-08-06T03:33:35;7.60;;;4.87;;
8086;SDS011;4086;54.412;9.980;2023-08-06T03:36:03;6.27;;;4.63;;
8086;SDS011;4086;54.412;9.980;2023-08-06T03:38:30;5.43;;;4.93;;
8086;SDS011;4086;54.412;9.980;2023-08-06T03:40:56;4.77;;;4.23;;
8086;SDS011;4086;54.412;9.980;2023-08-06T03:43:23;7.47;;;4.90;;
8086;SDS011;4086;54.412;9.980;2023-08-06T03:45:49;6.73;;;4.90;;
8086;SDS011;4086;54.412;9.980;2023-08-06T03:48:15;5.23;;;4.60;;
8086;SDS011;4086;54.412;9.980;2023-08-06T03:50:42;6.33;;;4.77;;
8086;SDS011;4086;54.412;9.980;2023-08-06T03:53:09;5.63;;;4.40;;
8086;SDS011;4086;54.412;9.980;2023-08-06T03:55:36;5.47;;;4.90;;
8086;SDS011;4086;54.412;9.980;2023-08-06T03:58:02;5.27;;;4.37;;
8086;SDS011;4086;54.412;9.980;2023-08-06T04:00:28;5.97;;;4.87;;
8086;SDS011;4086;54.412;9.980;2023-08-06T04:02:55;5.77;;;4.60;;
8086;SDS011;4086;54.412;9.980;2023-08-06T04:05:21;6.57;;;5.20;;
8086;SDS011;4086;54.412;9.980;2023-08-06T04:07:48;5.67;;;5.07;;
8086;SDS011;4086;54.412;9.980;2023-08-06T04:10:15;7.60;;;4.93;;
8086;SDS011;4086;54.412;9.980;2023-08-06T04:12:42;6.27;;;5.10;;
8086;SDS011;4086;54.412;9.980;2023-08-06T04:15:08;6.07;;;4.30;;
8086;SDS011;4086;54.412;9.980;2023-08-06T04:17:35;6.97;;;4.87;;
8086;SDS011;4086;54.412;9.980;2023-08-06T04:20:01;4.93;;;4.40;;
8086;SDS011;4086;54.412;9.980;2023-08-06T04:22:27;5.70;;;4.30;;
8086;SDS011;4086;54.412;9.980;2023-08-06T04:24:54;5.00;;;4.50;;
8086;SDS011;4086;54.412;9.980;2023-08-06T04:27:22;5.53;;;4.20;;
8086;SDS011;4086;54.412;9.980;2023-08-06T04:29:48;4.67;;;4.27;;
8086;SDS011;4086;54.412;9.980;2023-08-06T04:32:14;5.87;;;4.50;;
8086;SDS011;4086;54.412;9.980;2023-08-06T04:34:41;6.37;;;4.40;;
8086;SDS011;4086;54.412;9.980;2023-08-06T04:37:08;6.83;;;4.30;;
8086;SDS011;4086;54.412;9.980;2023-08-06T04:39:34;5.67;;;4.20;;
8086;SDS011;4086;54.412;9.980;2023-08-06T04:42:01;5.50;;;4.40;;
8086;SDS011;4086;54.412;9.980;2023-08-06T04:44:28;4.60;;;3.97;;
8086;SDS011;4086;54.412;9.980;2023-08-06T04:46:55;5.13;;;4.23;;
8086;SDS011;4086;54.412;9.980;2023-08-06T04:49:21;5.37;;;4.43;;
8086;SDS011;4086;54.412;9.980;2023-08-06T04:51:47;4.33;;;4.00;;
8086;SDS011;4086;54.412;9.980;2023-08-06T04:54:14;6.23;;;4.33;;
8086;SDS011;4086;54.412;9.980;2023-08-06T04:56:40;4.63;;;4.20;;
8086;SDS011;4086;54.412;9.980;2023-08-06T04:59:06;6.03;;;4.30;;
8086;SDS011;4086;54.412;9.980;2023-08-06T05:01:34;6.00;;;4.33;;
8086;SDS011;4086;54.412;9.980;2023-08-06T05:04:01;4.80;;;4.40;;
8086;SDS011;4086;54.412;9.980;2023-08-06T05:06:27;5.60;;;4.70;;
8086;SDS011;4086;54.412;9.980;2023-08-06T05:08:53;4.70;;;4.13;;
8086;SDS011;4086;54.412;9.980;2023-08-06T05:11:20;4.43;;;4.03;;
8086;SDS011;4086;54.412;9.980;2023-08-06T05:13:46;5.40;;;4.37;;
8086;SDS011;4086;54.412;9.980;2023-08-06T05:16:12;5.10;;;4.60;;
8086;SDS011;4086;54.412;9.980;2023-08-06T05:18:40;5.60;;;4.70;;
8086;SDS011;4086;54.412;9.980;2023-08-06T05:21:07;6.60;;;4.50;;
8086;SDS011;4086;54.412;9.980;2023-08-06T05:23:33;5.50;;;4.57;;
8086;SDS011;4086;54.412;9.980;2023-08-06T05:25:59;6.43;;;4.67;;
8086;SDS011;4086;54.412;9.980;2023-08-06T05:28:26;5.13;;;4.03;;
8086;SDS011;4086;54.412;9.980;2023-08-06T05:30:52;5.13;;;4.50;;
8086;SDS011;4086;54.412;9.980;2023-08-06T05:33:19;5.30;;;4.30;;
8086;SDS011;4086;54.412;9.980;2023-08-06T05:35:46;4.57;;;4.17;;
8086;SDS011;4086;54.412;9.980;2023-08-06T05:38:13;4.90;;;3.80;;
8086;SDS011;4086;54.412;9.980;2023-08-06T05:40:39;5.50;;;4.00;;
8086;SDS011;4086;54.412;9.980;2023-08-06T05:43:05;5.90;;;4.20;;
8086;SDS011;4086;54.412;9.980;2023-08-06T05:45:32;5.80;;;4.20;;
8086;SDS011;4086;54.412;9.980;2023-08-06T05:47:58;5.37;;;3.80;;
8086;SDS011;4086;54.412;9.980;2023-08-06T05:50:24;6.93;;;3.80;;
8086;SDS011;4086;54.412;9.980;2023-08-06T05:52:52;4.50;;;4.00;;
8086;SDS011;4086;54.412;9.980;2023-08-06T05:55:19;5.53;;;3.60;;
8086;SDS011;4086;54.412;9.980;2023-08-06T05:57:46;5.80;;;3.80;;
8086;SDS011;4086;54.412;9.980;2023-08-06T06:00:12;4.50;;;3.50;;
8086;SDS011;4086;54.412;9.980;2023-08-06T06:02:39;4.67;;;3.43;;
8086;SDS011;4086;54.412;9.980;2023-08-06T06:05:05;3.87;;;3.47;;
8086;SDS011;4086;54.412;9.980;2023-08-06T06:07:32;3.83;;;3.40;;
8086;SDS011;4086;54.412;9.980;2023-08-06T06:10:00;4.37;;;3.20;;
8086;SDS011;4086;54.412;9.980;2023-08-06T06:12:26;3.27;;;2.97;;
8086;SDS011;4086;54.412;9.980;2023-08-06T06:14:52;4.00;;;3.40;;
8086;SDS011;4086;54.412;9.980;2023-08-06T06:17:19;3.43;;;3.10;;
8086;SDS011;4086;54.412;9.980;2023-08-06T06:19:45;3.60;;;3.10;;
8086;SDS011;4086;54.412;9.980;2023-08-06T06:22:12;4.33;;;3.07;;
8086;SDS011;4086;54.412;9.980;2023-08-06T06:24:38;4.70;;;3.23;;
8086;SDS011;4086;54.412;9.980;2023-08-06T06:27:06;3.07;;;2.80;;
8086;SDS011;4086;54.412;9.980;2023-08-06T06:29:33;5.30;;;3.13;;
8086;SDS011;4086;54.412;9.980;2023-08-06T06:31:59;3.43;;;3.10;;
8086;SDS011;4086;54.412;9.980;2023-08-06T06:34:25;4.37;;;3.00;;
8086;SDS011;4086;54.412;9.980;2023-08-06T06:36:52;3.13;;;2.83;;
8086;SDS011;4086;54.412;9.980;2023-08-06T06:39:18;3.13;;;2.83;;
8086;SDS011;4086;54.412;9.980;2023-08-06T06:41:44;3.03;;;2.73;;
8086;SDS011;4086;54.412;9.980;2023-08-06T06:44:12;3.00;;;2.80;;
8086;SDS011;4086;54.412;9.980;2023-08-06T06:46:39;5.20;;;2.97;;
8086;SDS011;4086;54.412;9.980;2023-08-06T06:49:06;3.30;;;3.00;;
8086;SDS011;4086;54.412;9.980;2023-08-06T06:51:32;3.20;;;2.90;;
8086;SDS011;4086;54.412;9.980;2023-08-06T06:53:59;3.40;;;3.10;;
8086;SDS011;4086;54.412;9.980;2023-08-06T06:56:25;3.20;;;2.73;;
8086;SDS011;4086;54.412;9.980;2023-08-06T06:58:51;2.70;;;2.50;;
8086;SDS011;4086;54.412;9.980;2023-08-06T07:01:19;3.70;;;2.60;;
8086;SDS011;4086;54.412;9.980;2023-08-06T07:03:46;3.23;;;2.90;;
8086;SDS011;4086;54.412;9.980;2023-08-06T07:06:12;4.07;;;2.70;;
8086;SDS011;4086;54.412;9.980;2023-08-06T07:08:40;2.70;;;2.50;;
8086;SDS011;4086;54.412;9.980;2023-08-06T07:11:07;4.13;;;2.60;;
8086;SDS011;4086;54.412;9.980;2023-08-06T07:13:33;3.17;;;2.57;;
8086;SDS011;4086;54.412;9.980;2023-08-06T07:16:00;2.60;;;2.40;;
8086;SDS011;4086;54.412;9.980;2023-08-06T07:18:28;2.47;;;2.27;;
8086;SDS011;4086;54.412;9.980;2023-08-06T07:20:55;3.17;;;2.50;;
8086;SDS011;4086;54.412;9.980;2023-08-06T07:23:22;2.40;;;2.20;;
8086;SDS011;4086;54.412;9.980;2023-08-06T07:25:49;2.93;;;2.30;;
8086;SDS011;4086;54.412;9.980;2023-08-06T07:28:15;3.03;;;2.47;;
8086;SDS011;4086;54.412;9.980;2023-08-06T07:30:42;3.27;;;2.27;;
8086;SDS011;4086;54.412;9.980;2023-08-06T07:33:09;5.63;;;2.53;;
8086;SDS011;4086;54.412;9.980;2023-08-06T07:35:37;3.40;;;2.67;;
8086;SDS011;4086;54.412;9.980;2023-08-06T07:38:04;3.10;;;2.30;;
8086;SDS011;4086;54.412;9.980;2023-08-06T07:40:30;2.40;;;2.20;;
8086;SDS011;4086;54.412;9.980;2023-08-06T07:42:57;3.73;;;2.30;;
8086;SDS011;4086;54.412;9.980;2023-08-06T07:45:23;4.10;;;2.40;;
8086;SDS011;4086;54.412;9.980;2023-08-06T07:47:51;3.47;;;2.00;;
8086;SDS011;4086;54.412;9.980;2023-08-06T07:50:18;3.40;;;2.43;;
8086;SDS011;4086;54.412;9.980;2023-08-06T07:52:46;2.50;;;2.30;;
8086;SDS011;4086;54.412;9.980;2023-08-06T07:55:12;2.83;;;2.30;;
8086;SDS011;4086;54.412;9.980;2023-08-06T07:57:38;2.87;;;2.20;;
8086;SDS011;4086;54.412;9.980;2023-08-06T08:00:05;3.77;;;2.20;;
8086;SDS011;4086;54.412;9.980;2023-08-06T08:02:32;2.53;;;2.33;;
8086;SDS011;4086;54.412;9.980;2023-08-06T08:04:59;2.27;;;2.07;;
8086;SDS011;4086;54.412;9.980;2023-08-06T08:07:25;2.83;;;2.10;;
8086;SDS011;4086;54.412;9.980;2023-08-06T08:09:55;4.83;;;2.17;;
8086;SDS011;4086;54.412;9.980;2023-08-06T08:12:21;2.17;;;1.97;;
8086;SDS011;4086;54.412;9.980;2023-08-06T08:14:48;2.53;;;2.10;;
8086;SDS011;4086;54.412;9.980;2023-08-06T08:17:14;3.07;;;2.00;;
8086;SDS011;4086;54.412;9.980;2023-08-06T08:19:40;2.10;;;1.90;;
8086;SDS011;4086;54.412;9.980;2023-08-06T08:22:07;2.13;;;1.93;;
8086;SDS011;4086;54.412;9.980;2023-08-06T08:24:33;2.30;;;1.93;;
8086;SDS011;4086;54.412;9.980;2023-08-06T08:27:01;2.27;;;2.17;;
8086;SDS011;4086;54.412;9.980;2023-08-06T08:29:27;2.60;;;2.23;;
8086;SDS011;4086;54.412;9.980;2023-08-06T08:31:54;1.90;;;1.80;;
8086;SDS011;4086;54.412;9.980;2023-08-06T08:34:20;3.33;;;2.00;;
8086;SDS011;4086;54.412;9.980;2023-08-06T08:36:46;3.73;;;2.10;;
8086;SDS011;4086;54.412;9.980;2023-08-06T08:39:14;2.53;;;2.10;;
8086;SDS011;4086;54.412;9.980;2023-08-06T08:41:41;3.07;;;2.03;;
8086;SDS011;4086;54.412;9.980;2023-08-06T08:44:09;2.30;;;2.10;;
8086;SDS011;4086;54.412;9.980;2023-08-06T08:46:36;2.30;;;2.10;;
8086;SDS011;4086;54.412;9.980;2023-08-06T08:49:04;2.03;;;1.93;;
8086;SDS011;4086;54.412;9.980;2023-08-06T08:51:32;2.63;;;1.80;;
8086;SDS011;4086;54.412;9.980;2023-08-06T08:53:59;2.53;;;2.00;;
8086;SDS011;4086;54.412;9.980;2023-08-06T08:56:25;2.27;;;1.90;;
8086;SDS011;4086;54.412;9.980;2023-08-06T08:58:52;2.23;;;1.97;;
8086;SDS011;4086;54.412;9.980;2023-08-06T09:01:21;2.30;;;1.93;;
8086;SDS011;4086;54.412;9.980;2023-08-06T09:03:48;4.37;;;2.03;;
8086;SDS011;4086;54.412;9.980;2023-08-06T09:06:14;3.67;;;2.10;;
8086;SDS011;4086;54.412;9.980;2023-08-06T09:08:42;4.27;;;2.10;;
8086;SDS011;4086;54.412;9.980;2023-08-06T09:11:10;2.23;;;2.00;;
8086;SDS011;4086;54.412;9.980;2023-08-06T09:13:36;2.20;;;2.00;;
8086;SDS011;4086;54.412;9.980;2023-08-06T09:16:03;2.40;;;2.20;;
8086;SDS011;4086;54.412;9.980;2023-08-06T09:18:31;3.40;;;2.13;;
8086;SDS011;4086;54.412;9.980;2023-08-06T09:20:58;2.40;;;2.17;;
8086;SDS011;4086;54.412;9.980;2023-08-06T09:23:27;2.30;;;2.10;;
8086;SDS011;4086;54.412;9.980;2023-08-06T09:25:55;2.73;;;1.90;;
8086;SDS011;4086;54.412;9.980;2023-08-06T09:28:22;4.43;;;2.23;;
8086;SDS011;4086;54.412;9.980;2023-08-06T09:30:49;3.90;;;2.10;;
8086;SDS011;4086;54.412;9.980;2023-08-06T09:33:17;2.40;;;2.10;;
8086;SDS011;4086;54.412;9.980;2023-08-06T09:35:45;2.47;;;2.00;;
8086;SDS011;4086;54.412;9.980;2023-08-06T09:38:12;3.87;;;2.17;;
8086;SDS011;4086;54.412;9.980;2023-08-06T09:40:39;2.40;;;2.20;;
8086;SDS011;4086;54.412;9.980;2023-08-06T09:43:06;2.97;;;1.80;;
8086;SDS011;4086;54.412;9.980;2023-08-06T09:45:33;2.30;;;2.10;;
8086;SDS011;4086;54.412;9.980;2023-08-06T09:48:02;4.40;;;2.27;;
8086;SDS011;4086;54.412;9.980;2023-08-06T09:50:29;2.90;;;2.00;;
8086;SDS011;4086;54.412;9.980;2023-08-06T09:52:58;3.80;;;2.10;;
8086;SDS011;4086;54.412;9.980;2023-08-06T09:55:25;2.07;;;1.90;;
8086;SDS011;4086;54.412;9.980;2023-08-06T09:57:52;4.60;;;2.20;;
8086;SDS011;4086;54.412;9.980;2023-08-06T10:00:19;2.43;;;2.13;;
8086;SDS011;4086;54.412;9.980;2023-08-06T10:02:46;2.97;;;2.20;;
8086;SDS011;4086;54.412;9.980;2023-08-06T10:05:16;2.20;;;2.10;;
8086;SDS011;4086;54.412;9.980;2023-08-06T10:07:43;3.37;;;2.10;;
8086;SDS011;4086;54.412;9.980;2023-08-06T10:10:11;2.50;;;2.10;;
8086;SDS011;4086;54.412;9.980;2023-08-06T10:12:39;3.70;;;2.30;;
8086;SDS011;4086;54.412;9.980;2023-08-06T10:15:08;4.57;;;2.60;;
8086;SDS011;4086;54.412;9.980;2023-08-06T10:17:37;2.27;;;1.97;;
8086;SDS011;4086;54.412;9.980;2023-08-06T10:20:04;2.47;;;2.00;;
8086;SDS011;4086;54.412;9.980;2023-08-06T10:22:32;3.37;;;2.27;;
8086;SDS011;4086;54.412;9.980;2023-08-06T10:24:59;2.60;;;2.20;;
8086;SDS011;4086;54.412;9.980;2023-08-06T10:27:31;3.27;;;2.37;;
8086;SDS011;4086;54.412;9.980;2023-08-06T10:32:48;2.27;;;2.07;;
8086;SDS011;4086;54.412;9.980;2023-08-06T10:35:27;2.37;;;2.10;;
8086;SDS011;4086;54.412;9.980;2023-08-06T10:37:57;3.80;;;2.10;;
8086;SDS011;4086;54.412;9.980;2023-08-06T10:40:24;2.67;;;2.40;;
8086;SDS011;4086;54.412;9.980;2023-08-06T10:42:52;2.20;;;2.00;;
8086;SDS011;4086;54.412;9.980;2023-08-06T10:45:19;3.20;;;2.43;;
8086;SDS011;4086;54.412;9.980;2023-08-06T10:47:46;2.80;;;2.03;;
8086;SDS011;4086;54.412;9.980;2023-08-06T10:50:13;2.67;;;2.00;;
8086;SDS011;4086;54.412;9.980;2023-08-06T10:52:41;2.93;;;2.50;;
8086;SDS011;4086;54.412;9.980;2023-08-06T10:55:08;2.83;;;2.20;;
8086;SDS011;4086;54.412;9.980;2023-08-06T10:57:35;2.43;;;2.17;;
8086;SDS011;4086;54.412;9.980;2023-08-06T11:00:03;2.60;;;2.10;;
8086;SDS011;4086;54.412;9.980;2023-08-06T11:02:32;2.07;;;1.87;;
8086;SDS011;4086;54.412;9.980;2023-08-06T11:05:04;3.97;;;2.30;;
8086;SDS011;4086;54.412;9.980;2023-08-06T11:07:31;3.33;;;2.13;;
8086;SDS011;4086;54.412;9.980;2023-08-06T11:10:00;2.23;;;2.03;;
8086;SDS011;4086;54.412;9.980;2023-08-06T11:12:28;3.57;;;2.30;;
8086;SDS011;4086;54.412;9.980;2023-08-06T11:14:54;2.67;;;2.20;;
8086;SDS011;4086;54.412;9.980;2023-08-06T11:17:22;2.83;;;2.30;;
8086;SDS011;4086;54.412;9.980;2023-08-06T11:19:48;2.70;;;2.33;;
8086;SDS011;4086;54.412;9.980;2023-08-06T11:22:15;3.53;;;2.40;;
8086;SDS011;4086;54.412;9.980;2023-08-06T11:24:42;2.33;;;2.10;;
8086;SDS011;4086;54.412;9.980;2023-08-06T11:27:11;3.27;;;2.30;;
8086;SDS011;4086;54.412;9.980;2023-08-06T11:29:38;4.30;;;2.40;;
8086;SDS011;4086;54.412;9.980;2023-08-06T11:32:06;2.27;;;2.07;;
8086;SDS011;4086;54.412;9.980;2023-08-06T11:34:34;4.00;;;2.37;;
8086;SDS011;4086;54.412;9.980;2023-08-06T11:37:00;4.33;;;2.27;;
8086;SDS011;4086;54.412;9.980;2023-08-06T11:39:27;3.47;;;2.20;;
8086;SDS011;4086;54.412;9.980;2023-08-06T11:41:53;2.67;;;2.33;;
8086;SDS011;4086;54.412;9.980;2023-08-06T11:44:20;3.53;;;2.10;;
8086;SDS011;4086;54.412;9.980;2023-08-06T11:46:50;3.30;;;2.10;;
8086;SDS011;4086;54.412;9.980;2023-08-06T11:49:18;3.90;;;2.17;;
8086;SDS011;4086;54.412;9.980;2023-08-06T11:51:47;2.60;;;2.20;;
8086;SDS011;4086;54.412;9.980;2023-08-06T11:54:14;2.87;;;2.20;;
8086;SDS011;4086;54.412;9.980;2023-08-06T11:56:40;2.77;;;2.10;;
8086;SDS011;4086;54.412;9.980;2023-08-06T11:59:07;3.73;;;2.50;;
8086;SDS011;4086;54.412;9.980;2023-08-06T12:01:35;4.13;;;2.20;;
8086;SDS011;4086;54.412;9.980;2023-08-06T12:04:01;2.50;;;2.30;;
8086;SDS011;4086;54.412;9.980;2023-08-06T12:06:30;2.57;;;2.10;;
8086;SDS011;4086;54.412;9.980;2023-08-06T12:08:58;3.80;;;2.40;;
8086;SDS011;4086;54.412;9.980;2023-08-06T12:11:24;4.23;;;2.30;;
8086;SDS011;4086;54.412;9.980;2023-08-06T12:13:50;2.50;;;2.00;;
8086;SDS011;4086;54.412;9.980;2023-08-06T12:16:17;2.40;;;2.20;;
8086;SDS011;4086;54.412;9.980;2023-08-06T12:18:43;2.20;;;2.00;;
8086;SDS011;4086;54.412;9.980;2023-08-06T12:21:10;2.80;;;2.10;;
8086;SDS011;4086;54.412;9.980;2023-08-06T12:23:36;3.17;;;2.00;;
8086;SDS011;4086;54.412;9.980;2023-08-06T12:26:04;3.30;;;2.00;;
8086;SDS011;4086;54.412;9.980;2023-08-06T12:28:30;3.20;;;2.00;;
8086;SDS011;4086;54.412;9.980;2023-08-06T12:30:56;2.40;;;2.10;;
8086;SDS011;4086;54.412;9.980;2023-08-06T12:33:23;3.50;;;2.33;;
8086;SDS011;4086;54.412;9.980;2023-08-06T12:35:49;2.50;;;2.10;;
8086;SDS011;4086;54.412;9.980;2023-08-06T12:38:18;2.20;;;2.00;;
8086;SDS011;4086;54.412;9.980;2023-08-06T12:40:44;3.20;;;2.17;;
8086;SDS011;4086;54.412;9.980;2023-08-06T12:43:12;2.40;;;1.90;;
8086;SDS011;4086;54.412;9.980;2023-08-06T12:45:38;3.87;;;2.13;;
8086;SDS011;4086;54.412;9.980;2023-08-06T12:48:04;3.13;;;2.10;;
8086;SDS011;4086;54.412;9.980;2023-08-06T12:50:31;3.23;;;2.37;;
8086;SDS011;4086;54.412;9.980;2023-08-06T12:52:58;3.67;;;2.37;;
8086;SDS011;4086;54.412;9.980;2023-08-06T12:55:24;5.20;;;2.27;;
8086;SDS011;4086;54.412;9.980;2023-08-06T12:57:50;4.00;;;2.10;;
8086;SDS011;4086;54.412;9.980;2023-08-06T13:00:18;3.17;;;2.33;;
8086;SDS011;4086;54.412;9.980;2023-08-06T13:02:44;4.07;;;2.17;;
8086;SDS011;4086;54.412;9.980;2023-08-06T13:05:11;3.33;;;2.23;;
8086;SDS011;4086;54.412;9.980;2023-08-06T13:07:37;2.40;;;2.13;;
8086;SDS011;4086;54.412;9.980;2023-08-06T13:10:04;2.70;;;2.20;;
8086;SDS011;4086;54.412;9.980;2023-08-06T13:12:31;2.33;;;2.13;;
8086;SDS011;4086;54.412;9.980;2023-08-06T13:14:58;2.60;;;2.40;;
8086;SDS011;4086;54.412;9.980;2023-08-06T13:17:26;2.90;;;2.30;;
8086;SDS011;4086;54.412;9.980;2023-08-06T13:19:52;3.17;;;2.50;;
8086;SDS011;4086;54.412;9.980;2023-08-06T13:22:18;2.60;;;2.40;;
8086;SDS011;4086;54.412;9.980;2023-08-06T13:24:45;2.67;;;2.47;;
8086;SDS011;4086;54.412;9.980;2023-08-06T13:27:11;6.37;;;2.43;;
8086;SDS011;4086;54.412;9.980;2023-08-06T13:29:38;3.50;;;2.30;;
8086;SDS011;4086;54.412;9.980;2023-08-06T13:32:04;2.73;;;2.50;;
8086;SDS011;4086;54.412;9.980;2023-08-06T13:34:32;3.53;;;2.37;;
8086;SDS011;4086;54.412;9.980;2023-08-06T13:36:59;2.90;;;2.40;;
8086;SDS011;4086;54.412;9.980;2023-08-06T13:39:25;2.47;;;2.00;;
8086;SDS011;4086;54.412;9.980;2023-08-06T13:41:51;2.67;;;2.47;;
8086;SDS011;4086;54.412;9.980;2023-08-06T13:44:18;3.03;;;2.30;;
8086;SDS011;4086;54.412;9.980;2023-08-06T13:46:44;3.37;;;2.47;;
8086;SDS011;4086;54.412;9.980;2023-08-06T13:49:10;2.30;;;2.10;;
8086;SDS011;4086;54.412;9.980;2023-08-06T13:51:38;2.97;;;2.50;;
8086;SDS011;4086;54.412;9.980;2023-08-06T13:54:04;2.70;;;2.27;;
8086;SDS011;4086;54.412;9.980;2023-08-06T13:56:32;3.90;;;2.30;;
8086;SDS011;4086;54.412;9.980;2023-08-06T13:58:58;3.37;;;2.47;;
8086;SDS011;4086;54.412;9.980;2023-08-06T14:01:25;3.33;;;2.20;;
8086;SDS011;4086;54.412;9.980;2023-08-06T14:03:51;2.70;;;2.30;;
8086;SDS011;4086;54.412;9.980;2023-08-06T14:06:18;3.97;;;2.30;;
8086;SDS011;4086;54.412;9.980;2023-08-06T14:08:46;3.00;;;2.20;;
8086;SDS011;4086;54.412;9.980;2023-08-06T14:11:12;4.67;;;2.37;;
8086;SDS011;4086;54.412;9.980;2023-08-06T14:13:39;3.50;;;2.50;;
8086;SDS011;4086;54.412;9.980;2023-08-06T14:16:05;3.80;;;2.27;;
8086;SDS011;4086;54.412;9.980;2023-08-06T14:18:33;3.37;;;2.20;;
8086;SDS011;4086;54.412;9.980;2023-08-06T14:21:00;3.20;;;2.30;;
8086;SDS011;4086;54.412;9.980;2023-08-06T14:23:27;3.10;;;2.50;;
8086;SDS011;4086;54.412;9.980;2023-08-06T14:25:55;3.53;;;2.53;;
8086;SDS011;4086;54.412;9.980;2023-08-06T14:28:21;2.77;;;2.40;;
8086;SDS011;4086;54.412;9.980;2023-08-06T14:30:48;2.50;;;2.30;;
8086;SDS011;4086;54.412;9.980;2023-08-06T14:33:14;2.40;;;2.20;;
8086;SDS011;4086;54.412;9.980;2023-08-06T14:35:41;2.70;;;2.50;;
8086;SDS011;4086;54.412;9.980;2023-08-06T14:38:07;3.17;;;2.63;;
8086;SDS011;4086;54.412;9.980;2023-08-06T14:40:33;3.83;;;2.43;;
8086;SDS011;4086;54.412;9.980;2023-08-06T14:43:05;2.50;;;2.00;;
8086;SDS011;4086;54.412;9.980;2023-08-06T14:45:31;2.67;;;2.20;;
8086;SDS011;4086;54.412;9.980;2023-08-06T14:47:57;2.80;;;2.47;;
8086;SDS011;4086;54.412;9.980;2023-08-06T14:50:24;3.37;;;2.30;;
8086;SDS011;4086;54.412;9.980;2023-08-06T14:52:50;4.67;;;2.40;;
8086;SDS011;4086;54.412;9.980;2023-08-06T14:55:23;4.67;;;2.43;;
8086;SDS011;4086;54.412;9.980;2023-08-06T14:57:50;5.07;;;2.50;;
8086;SDS011;4086;54.412;9.980;2023-08-06T15:00:18;2.70;;;2.50;;
8086;SDS011;4086;54.412;9.980;2023-08-06T15:02:44;2.53;;;2.30;;
8086;SDS011;4086;54.412;9.980;2023-08-06T15:05:11;2.80;;;2.43;;
8086;SDS011;4086;54.412;9.980;2023-08-06T15:07:37;2.90;;;2.47;;
8086;SDS011;4086;54.412;9.980;2023-08-06T15:10:04;3.63;;;2.57;;
8086;SDS011;4086;54.412;9.980;2023-08-06T15:12:31;3.40;;;2.20;;
8086;SDS011;4086;54.412;9.980;2023-08-06T15:14:58;3.30;;;2.23;;